sensor_id;sensor_type;location;lat;lon;timestamp;P1;durP1;ratioP1;P2;durP2;ratioP2
2031;SDS011;27625;50.422;7.944;2024-03-02T00:02:04;11.30;;;7.37;;
2031;SDS011;27625;50.422;7.944;2024-03-02T00:04:32;14.40;;;8.33;;
2031;SDS011;27625;50.422;7.944;2024-03-02T00:06:59;11.90;;;7.80;;
2031;SDS011;27625;50.422;7.944;2024-03-02T00:09:26;12.77;;;8.30;;
2031;SDS011;27625;50.422;7.944;2024-03-02T00:11:54;12.60;;;7.90;;
2031;SDS011;27625;50.422;7.944;2024-03-02T00:14:22;13.40;;;8.87;;
2031;SDS011;27625;50.422;7.944;2024-03-02T00:16:50;13.27;;;8.60;;
2031;SDS011;27625;50.422;7.944;2024-03-02T00:19:24;12.67;;;8.63;;
2031;SDS011;27625;50.422;7.944;2024-03-02T00:21:52;12.33;;;8.40;;
2031;SDS011;27625;50.422;7.944;2024-03-02T00:24:20;12.50;;;9.10;;
2031;SDS011;27625;50.422;7.944;2024-03-02T00:26:48;12.40;;;9.07;;
2031;SDS011;27625;50.422;7.944;2024-03-02T00:29:16;11.57;;;8.33;;
2031;SDS011;27625;50.422;7.944;2024-03-02T00:31:45;15.20;;;10.20;;
2031;SDS011;27625;50.422;7.944;2024-03-02T00:34:14;13.23;;;8.93;;
2031;SDS011;27625;50.422;7.944;2024-03-02T00:36:42;11.90;;;8.40;;
2031;SDS011;27625;50.422;7.944;2024-03-02T00:39:10;13.10;;;10.03;;
2031;SDS011;27625;50.422;7.944;2024-03-02T00:41:40;12.93;;;9.30;;
2031;SDS011;27625;50.422;7.944;2024-03-02T00:44:09;13.53;;;8.77;;
2031;SDS011;27625;50.422;7.944;2024-03-02T00:46:45;14.30;;;9.33;;
2031;SDS011;27625;50.422;7.944;2024-03-02T00:49:16;13.00;;;10.23;;
2031;SDS011;27625;50.422;7.944;2024-03-02T00:51:46;13.07;;;9.30;;
2031;SDS011;27625;50.422;7.944;2024-03-02T00:54:15;15.27;;;9.20;;
2031;SDS011;27625;50.422;7.944;2024-03-02T00:56:42;14.50;;;10.37;;
2031;SDS011;27625;50.422;7.944;2024-03-02T00:59:11;13.37;;;9.57;;
2031;SDS011;27625;50.422;7.944;2024-03-02T01:01:37;14.53;;;10.07;;
2031;SDS011;27625;50.422;7.944;2024-03-02T01:04:09;14.90;;;9.57;;
2031;SDS011;27625;50.422;7.944;2024-03-02T01:06:37;21.40;;;12.67;;
2031;SDS011;27625;50.422;7.944;2024-03-02T01:09:03;17.33;;;11.83;;
2031;SDS011;27625;50.422;7.944;2024-03-02T01:11:30;16.80;;;12.20;;
2031;SDS011;27625;50.422;7.944;2024-03-02T01:14:04;17.70;;;11.57;;
2031;SDS011;27625;50.422;7.944;2024-03-02T01:16:31;17.13;;;11.40;;
2031;SDS011;27625;50.422;7.944;2024-03-02T01:18:59;14.37;;;10.53;;
2031;SDS011;27625;50.422;7.944;2024-03-02T01:21:27;15.87;;;11.00;;
2031;SDS011;27625;50.422;7.944;2024-03-02T01:23:53;18.73;;;12.00;;
2031;SDS011;27625;50.422;7.944;2024-03-02T01:26:22;21.67;;;12.30;;
2031;SDS011;27625;50.422;7.944;2024-03-02T01:28:49;19.73;;;13.17;;
2031;SDS011;27625;50.422;7.944;2024-03-02T01:31:15;22.13;;;12.83;;
2031;SDS011;27625;50.422;7.944;2024-03-02T01:33:43;17.93;;;12.03;;
2031;SDS011;27625;50.422;7.944;2024-03-02T01:36:10;20.27;;;12.30;;
2031;SDS011;27625;50.422;7.944;2024-03-02T01:38:38;21.10;;;13.33;;
2031;SDS011;27625;50.422;7.944;2024-03-02T01:41:11;22.20;;;11.90;;
2031;SDS011;27625;50.422;7.944;2024-03-02T01:43:38;16.93;;;10.87;;
2031;SDS011;27625;50.422;7.944;2024-03-02T01:46:09;23.17;;;13.37;;
2031;SDS011;27625;50.422;7.944;2024-03-02T01:48:45;20.50;;;12.77;;
2031;SDS011;27625;50.422;7.944;2024-03-02T01:51:12;21.37;;;13.17;;
2031;SDS011;27625;50.422;7.944;2024-03-02T01:53:41;20.03;;;13.10;;
2031;SDS011;27625;50.422;7.944;2024-03-02T01:56:08;20.17;;;13.83;;
2031;SDS011;27625;50.422;7.944;2024-03-02T01:58:36;24.47;;;13.40;;
2031;SDS011;27625;50.422;7.944;2024-03-02T02:01:05;19.10;;;12.23;;
2031;SDS011;27625;50.422;7.944;2024-03-02T02:03:32;20.93;;;13.43;;
2031;SDS011;27625;50.422;7.944;2024-03-02T02:05:58;20.47;;;12.50;;
2031;SDS011;27625;50.422;7.944;2024-03-02T02:08:27;21.37;;;12.80;;
2031;SDS011;27625;50.422;7.944;2024-03-02T02:10:56;30.70;;;13.97;;
2031;SDS011;27625;50.422;7.944;2024-03-02T02:13:23;21.20;;;12.73;;
2031;SDS011;27625;50.422;7.944;2024-03-02T02:18:21;24.83;;;13.23;;
2031;SDS011;27625;50.422;7.944;2024-03-02T02:20:48;23.47;;;12.60;;
2031;SDS011;27625;50.422;7.944;2024-03-02T02:23:17;23.10;;;14.47;;
2031;SDS011;27625;50.422;7.944;2024-03-02T02:25:44;20.70;;;13.77;;
2031;SDS011;27625;50.422;7.944;2024-03-02T02:28:11;21.30;;;14.07;;
2031;SDS011;27625;50.422;7.944;2024-03-02T02:30:38;22.67;;;14.30;;
2031;SDS011;27625;50.422;7.944;2024-03-02T02:33:04;20.30;;;13.57;;
2031;SDS011;27625;50.422;7.944;2024-03-02T02:35:31;23.20;;;14.03;;
2031;SDS011;27625;50.422;7.944;2024-03-02T02:37:58;22.90;;;13.70;;
2031;SDS011;27625;50.422;7.944;2024-03-02T02:40:28;23.80;;;13.47;;
2031;SDS011;27625;50.422;7.944;2024-03-02T02:42:56;20.73;;;13.10;;
2031;SDS011;27625;50.422;7.944;2024-03-02T02:45:24;23.37;;;14.67;;
2031;SDS011;27625;50.422;7.944;2024-03-02T02:47:52;24.63;;;14.17;;
2031;SDS011;27625;50.422;7.944;2024-03-02T02:50:28;26.50;;;14.80;;
2031;SDS011;27625;50.422;7.944;2024-03-02T02:52:55;25.57;;;13.67;;
2031;SDS011;27625;50.422;7.944;2024-03-02T02:55:21;27.47;;;15.53;;
2031;SDS011;27625;50.422;7.944;2024-03-02T02:57:49;24.30;;;14.27;;
2031;SDS011;27625;50.422;7.944;2024-03-02T03:00:16;23.80;;;13.00;;
2031;SDS011;27625;50.422;7.944;2024-03-02T03:02:45;24.33;;;14.53;;
2031;SDS011;27625;50.422;7.944;2024-03-02T03:05:17;24.47;;;15.07;;
2031;SDS011;27625;50.422;7.944;2024-03-02T03:07:44;22.60;;;13.63;;
2031;SDS011;27625;50.422;7.944;2024-03-02T03:10:13;22.30;;;12.20;;
2031;SDS011;27625;50.422;7.944;2024-03-02T03:12:40;23.30;;;14.37;;
2031;SDS011;27625;50.422;7.944;2024-03-02T03:15:10;22.03;;;13.70;;
2031;SDS011;27625;50.422;7.944;2024-03-02T03:17:38;23.97;;;14.63;;
2031;SDS011;27625;50.422;7.944;2024-03-02T03:20:05;22.67;;;14.17;;
2031;SDS011;27625;50.422;7.944;2024-03-02T03:22:37;23.90;;;14.70;;
2031;SDS011;27625;50.422;7.944;2024-03-02T03:25:06;29.73;;;15.00;;
2031;SDS011;27625;50.422;7.944;2024-03-02T03:27:34;20.33;;;13.57;;
2031;SDS011;27625;50.422;7.944;2024-03-02T03:30:03;20.00;;;13.03;;
2031;SDS011;27625;50.422;7.944;2024-03-02T03:32:33;28.50;;;14.07;;
2031;SDS011;27625;50.422;7.944;2024-03-02T03:35:01;28.33;;;13.80;;
2031;SDS011;27625;50.422;7.944;2024-03-02T03:37:29;25.53;;;13.77;;
2031;SDS011;27625;50.422;7.944;2024-03-02T03:39:58;22.00;;;13.27;;
2031;SDS011;27625;50.422;7.944;2024-03-02T03:42:25;18.50;;;12.83;;
2031;SDS011;27625;50.422;7.944;2024-03-02T03:45:04;22.77;;;13.90;;
2031;SDS011;27625;50.422;7.944;2024-03-02T03:47:34;19.07;;;12.13;;
2031;SDS011;27625;50.422;7.944;2024-03-02T03:50:03;24.40;;;14.17;;
2031;SDS011;27625;50.422;7.944;2024-03-02T03:52:38;22.60;;;13.37;;
2031;SDS011;27625;50.422;7.944;2024-03-02T03:55:05;20.93;;;13.13;;
2031;SDS011;27625;50.422;7.944;2024-03-02T03:57:38;19.00;;;13.07;;
2031;SDS011;27625;50.422;7.944;2024-03-02T04:00:05;23.13;;;14.23;;
2031;SDS011;27625;50.422;7.944;2024-03-02T04:02:39;22.20;;;13.27;;
2031;SDS011;27625;50.422;7.944;2024-03-02T04:05:06;22.77;;;13.10;;
2031;SDS011;27625;50.422;7.944;2024-03-02T04:07:36;23.10;;;12.70;;
2031;SDS011;27625;50.422;7.944;2024-03-02T04:10:08;20.77;;;13.13;;
2031;SDS011;27625;50.422;7.944;2024-03-02T04:12:55;22.10;;;13.27;;
2031;SDS011;27625;50.422;7.944;2024-03-02T04:15:21;25.17;;;14.30;;
2031;SDS011;27625;50.422;7.944;2024-03-02T04:17:51;21.23;;;12.67;;
2031;SDS011;27625;50.422;7.944;2024-03-02T04:20:17;18.13;;;11.37;;
2031;SDS011;27625;50.422;7.944;2024-03-02T04:22:45;20.70;;;11.80;;
2031;SDS011;27625;50.422;7.944;2024-03-02T04:25:12;20.33;;;12.97;;
2031;SDS011;27625;50.422;7.944;2024-03-02T04:27:39;21.13;;;13.97;;
2031;SDS011;27625;50.422;7.944;2024-03-02T04:30:06;23.20;;;13.90;;
2031;SDS011;27625;50.422;7.944;2024-03-02T04:32:34;27.50;;;14.00;;
2031;SDS011;27625;50.422;7.944;2024-03-02T04:35:03;20.17;;;12.40;;
2031;SDS011;27625;50.422;7.944;2024-03-02T04:37:31;25.47;;;14.20;;
2031;SDS011;27625;50.422;7.944;2024-03-02T04:42:34;22.63;;;13.23;;
2031;SDS011;27625;50.422;7.944;2024-03-02T04:45:04;20.70;;;13.20;;
2031;SDS011;27625;50.422;7.944;2024-03-02T04:47:35;19.60;;;12.60;;
2031;SDS011;27625;50.422;7.944;2024-03-02T04:52:37;26.33;;;14.30;;
2031;SDS011;27625;50.422;7.944;2024-03-02T04:55:04;21.33;;;12.70;;
2031;SDS011;27625;50.422;7.944;2024-03-02T04:57:56;15.67;;;11.17;;
2031;SDS011;27625;50.422;7.944;2024-03-02T05:00:23;19.70;;;12.60;;
2031;SDS011;27625;50.422;7.944;2024-03-02T05:02:50;20.10;;;12.43;;
2031;SDS011;27625;50.422;7.944;2024-03-02T05:05:19;19.73;;;12.57;;
2031;SDS011;27625;50.422;7.944;2024-03-02T05:10:20;20.97;;;12.33;;
2031;SDS011;27625;50.422;7.944;2024-03-02T05:12:46;20.17;;;12.53;;
2031;SDS011;27625;50.422;7.944;2024-03-02T05:15:28;19.20;;;13.47;;
2031;SDS011;27625;50.422;7.944;2024-03-02T05:17:56;24.27;;;13.13;;
2031;SDS011;27625;50.422;7.944;2024-03-02T05:20:27;19.27;;;12.00;;
2031;SDS011;27625;50.422;7.944;2024-03-02T05:22:55;22.50;;;14.13;;
2031;SDS011;27625;50.422;7.944;2024-03-02T05:25:23;17.93;;;12.97;;
2031;SDS011;27625;50.422;7.944;2024-03-02T05:27:50;23.03;;;13.30;;
2031;SDS011;27625;50.422;7.944;2024-03-02T05:32:57;20.63;;;12.70;;
2031;SDS011;27625;50.422;7.944;2024-03-02T05:35:30;20.20;;;13.40;;
2031;SDS011;27625;50.422;7.944;2024-03-02T05:37:58;20.97;;;12.83;;
2031;SDS011;27625;50.422;7.944;2024-03-02T05:40:27;22.80;;;14.37;;
2031;SDS011;27625;50.422;7.944;2024-03-02T05:42:53;21.33;;;14.00;;
2031;SDS011;27625;50.422;7.944;2024-03-02T05:45:23;23.80;;;13.20;;
2031;SDS011;27625;50.422;7.944;2024-03-02T05:47:50;20.50;;;13.03;;
2031;SDS011;27625;50.422;7.944;2024-03-02T05:50:17;22.20;;;13.73;;
2031;SDS011;27625;50.422;7.944;2024-03-02T05:52:47;20.27;;;12.63;;
2031;SDS011;27625;50.422;7.944;2024-03-02T05:55:21;20.60;;;13.67;;
2031;SDS011;27625;50.422;7.944;2024-03-02T05:57:49;21.03;;;12.37;;
2031;SDS011;27625;50.422;7.944;2024-03-02T06:00:27;20.03;;;13.13;;
2031;SDS011;27625;50.422;7.944;2024-03-02T06:02:56;19.83;;;12.87;;
2031;SDS011;27625;50.422;7.944;2024-03-02T06:05:24;23.60;;;14.43;;
2031;SDS011;27625;50.422;7.944;2024-03-02T06:07:52;21.53;;;12.80;;
2031;SDS011;27625;50.422;7.944;2024-03-02T06:10:19;22.07;;;13.67;;
2031;SDS011;27625;50.422;7.944;2024-03-02T06:12:46;23.30;;;12.70;;
2031;SDS011;27625;50.422;7.944;2024-03-02T06:15:13;23.53;;;13.73;;
2031;SDS011;27625;50.422;7.944;2024-03-02T06:17:43;24.30;;;14.20;;
2031;SDS011;27625;50.422;7.944;2024-03-02T06:20:10;25.30;;;13.17;;
2031;SDS011;27625;50.422;7.944;2024-03-02T06:22:37;19.07;;;11.70;;
2031;SDS011;27625;50.422;7.944;2024-03-02T06:25:06;21.43;;;12.60;;
2031;SDS011;27625;50.422;7.944;2024-03-02T06:27:33;25.23;;;14.60;;
2031;SDS011;27625;50.422;7.944;2024-03-02T06:32:32;22.47;;;13.90;;
2031;SDS011;27625;50.422;7.944;2024-03-02T06:35:00;24.20;;;14.67;;
2031;SDS011;27625;50.422;7.944;2024-03-02T06:37:26;25.70;;;14.07;;
2031;SDS011;27625;50.422;7.944;2024-03-02T06:39:54;26.20;;;15.10;;
2031;SDS011;27625;50.422;7.944;2024-03-02T06:42:23;26.40;;;14.87;;
2031;SDS011;27625;50.422;7.944;2024-03-02T06:44:50;24.07;;;13.93;;
2031;SDS011;27625;50.422;7.944;2024-03-02T06:47:17;22.83;;;13.57;;
2031;SDS011;27625;50.422;7.944;2024-03-02T06:49:45;23.53;;;14.20;;
2031;SDS011;27625;50.422;7.944;2024-03-02T06:52:13;20.90;;;12.50;;
2031;SDS011;27625;50.422;7.944;2024-03-02T06:54:40;19.00;;;12.73;;
2031;SDS011;27625;50.422;7.944;2024-03-02T06:57:06;23.83;;;15.27;;
2031;SDS011;27625;50.422;7.944;2024-03-02T06:59:36;27.40;;;14.87;;
2031;SDS011;27625;50.422;7.944;2024-03-02T07:02:07;23.47;;;13.77;;
2031;SDS011;27625;50.422;7.944;2024-03-02T07:04:34;24.33;;;13.90;;
2031;SDS011;27625;50.422;7.944;2024-03-02T07:07:02;21.50;;;13.80;;
2031;SDS011;27625;50.422;7.944;2024-03-02T07:09:36;24.07;;;14.03;;
2031;SDS011;27625;50.422;7.944;2024-03-02T07:12:04;23.13;;;12.47;;
2031;SDS011;27625;50.422;7.944;2024-03-02T07:14:34;22.30;;;12.73;;
2031;SDS011;27625;50.422;7.944;2024-03-02T07:17:22;22.07;;;12.37;;
2031;SDS011;27625;50.422;7.944;2024-03-02T07:19:49;18.97;;;12.13;;
2031;SDS011;27625;50.422;7.944;2024-03-02T07:22:15;21.70;;;13.00;;
2031;SDS011;27625;50.422;7.944;2024-03-02T07:24:43;20.23;;;12.83;;
2031;SDS011;27625;50.422;7.944;2024-03-02T07:27:12;19.03;;;12.07;;
2031;SDS011;27625;50.422;7.944;2024-03-02T07:29:40;20.27;;;12.30;;
2031;SDS011;27625;50.422;7.944;2024-03-02T07:32:10;23.63;;;14.17;;
2031;SDS011;27625;50.422;7.944;2024-03-02T07:34:38;20.00;;;10.80;;
2031;SDS011;27625;50.422;7.944;2024-03-02T07:37:05;21.93;;;12.20;;
2031;SDS011;27625;50.422;7.944;2024-03-02T07:39:32;21.97;;;12.70;;
2031;SDS011;27625;50.422;7.944;2024-03-02T07:41:59;18.03;;;11.60;;
2031;SDS011;27625;50.422;7.944;2024-03-02T07:46:57;20.60;;;12.40;;
2031;SDS011;27625;50.422;7.944;2024-03-02T07:49:26;20.13;;;11.80;;
2031;SDS011;27625;50.422;7.944;2024-03-02T07:51:55;19.70;;;12.37;;
2031;SDS011;27625;50.422;7.944;2024-03-02T07:56:57;19.80;;;12.07;;
2031;SDS011;27625;50.422;7.944;2024-03-02T07:59:26;20.27;;;10.83;;
2031;SDS011;27625;50.422;7.944;2024-03-02T08:02:00;18.77;;;12.97;;
2031;SDS011;27625;50.422;7.944;2024-03-02T08:04:27;17.70;;;12.13;;
2031;SDS011;27625;50.422;7.944;2024-03-02T08:06:56;18.00;;;11.33;;
2031;SDS011;27625;50.422;7.944;2024-03-02T08:09:29;18.83;;;11.20;;
2031;SDS011;27625;50.422;7.944;2024-03-02T08:11:55;23.63;;;11.60;;
2031;SDS011;27625;50.422;7.944;2024-03-02T08:14:27;17.27;;;11.50;;
2031;SDS011;27625;50.422;7.944;2024-03-02T08:16:53;16.43;;;10.43;;
2031;SDS011;27625;50.422;7.944;2024-03-02T08:21:52;14.90;;;10.80;;
2031;SDS011;27625;50.422;7.944;2024-03-02T08:24:20;18.23;;;9.10;;
2031;SDS011;27625;50.422;7.944;2024-03-02T08:26:47;18.63;;;10.20;;
2031;SDS011;27625;50.422;7.944;2024-03-02T08:29:14;13.07;;;8.20;;
2031;SDS011;27625;50.422;7.944;2024-03-02T08:31:42;13.87;;;8.80;;
2031;SDS011;27625;50.422;7.944;2024-03-02T08:34:10;13.60;;;8.17;;
2031;SDS011;27625;50.422;7.944;2024-03-02T08:36:38;13.40;;;7.83;;
2031;SDS011;27625;50.422;7.944;2024-03-02T08:39:11;10.00;;;7.13;;
2031;SDS011;27625;50.422;7.944;2024-03-02T08:41:44;10.03;;;7.60;;
2031;SDS011;27625;50.422;7.944;2024-03-02T08:44:14;8.63;;;6.73;;
2031;SDS011;27625;50.422;7.944;2024-03-02T08:46:42;12.67;;;7.80;;
2031;SDS011;27625;50.422;7.944;2024-03-02T08:49:10;12.07;;;7.50;;
2031;SDS011;27625;50.422;7.944;2024-03-02T08:51:38;11.30;;;7.10;;
2031;SDS011;27625;50.422;7.944;2024-03-02T08:54:06;10.37;;;6.30;;
2031;SDS011;27625;50.422;7.944;2024-03-02T08:56:33;9.53;;;6.10;;
2031;SDS011;27625;50.422;7.944;2024-03-02T08:59:03;9.10;;;6.07;;
2031;SDS011;27625;50.422;7.944;2024-03-02T09:01:36;8.40;;;6.80;;
2031;SDS011;27625;50.422;7.944;2024-03-02T09:04:06;9.00;;;6.40;;
2031;SDS011;27625;50.422;7.944;2024-03-02T09:06:35;8.77;;;6.63;;
2031;SDS011;27625;50.422;7.944;2024-03-02T09:09:02;9.80;;;6.37;;
2031;SDS011;27625;50.422;7.944;2024-03-02T09:11:29;9.43;;;6.37;;
2031;SDS011;27625;50.422;7.944;2024-03-02T09:13:57;9.23;;;6.30;;
2031;SDS011;27625;50.422;7.944;2024-03-02T09:18:56;8.50;;;6.03;;
2031;SDS011;27625;50.422;7.944;2024-03-02T09:21:22;12.00;;;6.13;;
2031;SDS011;27625;50.422;7.944;2024-03-02T09:23:52;9.43;;;5.90;;
2031;SDS011;27625;50.422;7.944;2024-03-02T09:26:21;8.60;;;5.67;;
2031;SDS011;27625;50.422;7.944;2024-03-02T09:28:57;9.33;;;5.97;;
2031;SDS011;27625;50.422;7.944;2024-03-02T09:31:25;11.33;;;5.00;;
2031;SDS011;27625;50.422;7.944;2024-03-02T09:33:53;7.80;;;5.60;;
2031;SDS011;27625;50.422;7.944;2024-03-02T09:36:23;6.83;;;5.23;;
2031;SDS011;27625;50.422;7.944;2024-03-02T09:38:51;7.63;;;5.40;;
2031;SDS011;27625;50.422;7.944;2024-03-02T09:41:18;6.80;;;4.80;;
2031;SDS011;27625;50.422;7.944;2024-03-02T09:43:44;5.83;;;4.50;;
2031;SDS011;27625;50.422;7.944;2024-03-02T09:46:11;6.47;;;4.50;;
2031;SDS011;27625;50.422;7.944;2024-03-02T09:51:16;5.77;;;3.70;;
2031;SDS011;27625;50.422;7.944;2024-03-02T09:53:44;5.73;;;4.50;;
2031;SDS011;27625;50.422;7.944;2024-03-02T09:58:43;5.33;;;3.80;;
2031;SDS011;27625;50.422;7.944;2024-03-02T10:01:10;6.77;;;4.43;;
2031;SDS011;27625;50.422;7.944;2024-03-02T10:03:37;6.20;;;3.93;;
2031;SDS011;27625;50.422;7.944;2024-03-02T10:06:22;6.60;;;4.53;;
2031;SDS011;27625;50.422;7.944;2024-03-02T10:08:49;6.57;;;4.63;;
2031;SDS011;27625;50.422;7.944;2024-03-02T10:11:27;8.27;;;4.37;;
2031;SDS011;27625;50.422;7.944;2024-03-02T10:14:09;5.13;;;4.00;;
2031;SDS011;27625;50.422;7.944;2024-03-02T10:16:37;6.20;;;4.20;;
2031;SDS011;27625;50.422;7.944;2024-03-02T10:19:17;7.43;;;4.67;;
2031;SDS011;27625;50.422;7.944;2024-03-02T10:21:48;9.63;;;4.40;;
2031;SDS011;27625;50.422;7.944;2024-03-02T10:24:15;6.67;;;4.20;;
2031;SDS011;27625;50.422;7.944;2024-03-02T10:26:44;5.73;;;3.97;;
2031;SDS011;27625;50.422;7.944;2024-03-02T10:29:11;6.23;;;3.97;;
2031;SDS011;27625;50.422;7.944;2024-03-02T10:31:38;5.60;;;4.20;;
2031;SDS011;27625;50.422;7.944;2024-03-02T10:34:07;7.00;;;4.40;;
2031;SDS011;27625;50.422;7.944;2024-03-02T10:36:35;6.03;;;4.20;;
2031;SDS011;27625;50.422;7.944;2024-03-02T10:39:07;6.13;;;4.37;;
2031;SDS011;27625;50.422;7.944;2024-03-02T10:41:34;6.60;;;3.77;;
2031;SDS011;27625;50.422;7.944;2024-03-02T10:44:03;5.33;;;3.53;;
2031;SDS011;27625;50.422;7.944;2024-03-02T10:46:33;5.60;;;3.40;;
2031;SDS011;27625;50.422;7.944;2024-03-02T10:49:01;5.87;;;4.10;;
2031;SDS011;27625;50.422;7.944;2024-03-02T10:51:31;5.30;;;3.60;;
2031;SDS011;27625;50.422;7.944;2024-03-02T10:54:01;5.20;;;3.70;;
2031;SDS011;27625;50.422;7.944;2024-03-02T10:56:30;5.70;;;4.03;;
2031;SDS011;27625;50.422;7.944;2024-03-02T10:59:02;5.43;;;3.53;;
2031;SDS011;27625;50.422;7.944;2024-03-02T11:01:30;5.40;;;3.30;;
2031;SDS011;27625;50.422;7.944;2024-03-02T11:03:59;4.47;;;3.20;;
2031;SDS011;27625;50.422;7.944;2024-03-02T11:06:27;4.93;;;3.10;;
2031;SDS011;27625;50.422;7.944;2024-03-02T11:08:57;4.50;;;2.80;;
2031;SDS011;27625;50.422;7.944;2024-03-02T11:11:27;4.83;;;3.00;;
2031;SDS011;27625;50.422;7.944;2024-03-02T11:14:00;3.47;;;2.33;;
2031;SDS011;27625;50.422;7.944;2024-03-02T11:16:33;4.73;;;3.13;;
2031;SDS011;27625;50.422;7.944;2024-03-02T11:19:03;5.20;;;2.60;;
2031;SDS011;27625;50.422;7.944;2024-03-02T11:21:33;3.67;;;2.50;;
2031;SDS011;27625;50.422;7.944;2024-03-02T11:24:00;3.93;;;2.73;;
2031;SDS011;27625;50.422;7.944;2024-03-02T11:26:30;3.40;;;2.23;;
2031;SDS011;27625;50.422;7.944;2024-03-02T11:29:05;5.00;;;2.20;;
2031;SDS011;27625;50.422;7.944;2024-03-02T11:34:29;3.10;;;2.20;;
2031;SDS011;27625;50.422;7.944;2024-03-02T11:36:57;3.70;;;2.20;;
2031;SDS011;27625;50.422;7.944;2024-03-02T11:39:32;6.67;;;3.37;;
2031;SDS011;27625;50.422;7.944;2024-03-02T11:42:07;5.37;;;3.37;;
2031;SDS011;27625;50.422;7.944;2024-03-02T11:44:37;11.60;;;5.67;;
2031;SDS011;27625;50.422;7.944;2024-03-02T11:47:06;5.70;;;3.30;;
2031;SDS011;27625;50.422;7.944;2024-03-02T11:49:36;5.23;;;2.60;;
2031;SDS011;27625;50.422;7.944;2024-03-02T11:52:06;5.40;;;3.60;;
2031;SDS011;27625;50.422;7.944;2024-03-02T11:54:34;5.60;;;3.40;;
2031;SDS011;27625;50.422;7.944;2024-03-02T11:57:04;3.60;;;2.60;;
2031;SDS011;27625;50.422;7.944;2024-03-02T11:59:39;2.70;;;1.70;;
2031;SDS011;27625;50.422;7.944;2024-03-02T12:02:14;3.43;;;1.63;;
2031;SDS011;27625;50.422;7.944;2024-03-02T12:04:49;2.73;;;1.50;;
2031;SDS011;27625;50.422;7.944;2024-03-02T12:07:18;2.33;;;1.37;;
2031;SDS011;27625;50.422;7.944;2024-03-02T12:09:46;3.37;;;1.40;;
2031;SDS011;27625;50.422;7.944;2024-03-02T12:12:14;2.90;;;1.67;;
2031;SDS011;27625;50.422;7.944;2024-03-02T12:14:51;3.47;;;1.30;;
2031;SDS011;27625;50.422;7.944;2024-03-02T12:19:51;4.47;;;1.50;;
2031;SDS011;27625;50.422;7.944;2024-03-02T12:22:27;2.60;;;1.33;;
2031;SDS011;27625;50.422;7.944;2024-03-02T12:24:55;2.50;;;1.40;;
2031;SDS011;27625;50.422;7.944;2024-03-02T12:27:25;3.10;;;1.40;;
2031;SDS011;27625;50.422;7.944;2024-03-02T12:29:51;2.50;;;1.30;;
2031;SDS011;27625;50.422;7.944;2024-03-02T12:32:22;3.27;;;1.70;;
2031;SDS011;27625;50.422;7.944;2024-03-02T12:37:26;6.87;;;1.70;;
2031;SDS011;27625;50.422;7.944;2024-03-02T12:39:54;2.77;;;1.77;;
2031;SDS011;27625;50.422;7.944;2024-03-02T12:42:21;2.57;;;1.50;;
2031;SDS011;27625;50.422;7.944;2024-03-02T12:44:51;2.13;;;1.20;;
2031;SDS011;27625;50.422;7.944;2024-03-02T12:47:19;3.00;;;1.40;;
2031;SDS011;27625;50.422;7.944;2024-03-02T12:49:46;4.13;;;2.30;;
2031;SDS011;27625;50.422;7.944;2024-03-02T12:52:20;2.30;;;1.40;;
2031;SDS011;27625;50.422;7.944;2024-03-02T12:54:47;3.27;;;1.60;;
2031;SDS011;27625;50.422;7.944;2024-03-02T12:57:16;3.17;;;1.73;;
2031;SDS011;27625;50.422;7.944;2024-03-02T12:59:45;3.07;;;2.17;;
2031;SDS011;27625;50.422;7.944;2024-03-02T13:02:17;2.57;;;1.20;;
2031;SDS011;27625;50.422;7.944;2024-03-02T13:04:44;2.73;;;1.53;;
2031;SDS011;27625;50.422;7.944;2024-03-02T13:07:19;3.73;;;2.07;;
2031;SDS011;27625;50.422;7.944;2024-03-02T13:09:48;2.67;;;1.23;;
2031;SDS011;27625;50.422;7.944;2024-03-02T13:12:24;2.23;;;1.43;;
2031;SDS011;27625;50.422;7.944;2024-03-02T13:14:53;3.70;;;1.63;;
2031;SDS011;27625;50.422;7.944;2024-03-02T13:17:22;2.90;;;1.50;;
2031;SDS011;27625;50.422;7.944;2024-03-02T13:22:25;2.93;;;1.50;;
2031;SDS011;27625;50.422;7.944;2024-03-02T13:24:52;3.70;;;2.20;;
2031;SDS011;27625;50.422;7.944;2024-03-02T13:27:20;3.27;;;1.80;;
2031;SDS011;27625;50.422;7.944;2024-03-02T13:29:49;3.40;;;2.27;;
2031;SDS011;27625;50.422;7.944;2024-03-02T13:32:18;2.90;;;2.00;;
2031;SDS011;27625;50.422;7.944;2024-03-02T13:34:52;5.13;;;1.90;;
2031;SDS011;27625;50.422;7.944;2024-03-02T13:37:19;2.60;;;1.63;;
2031;SDS011;27625;50.422;7.944;2024-03-02T13:39:47;2.77;;;1.50;;
2031;SDS011;27625;50.422;7.944;2024-03-02T13:42:14;3.23;;;1.70;;
2031;SDS011;27625;50.422;7.944;2024-03-02T13:44:42;3.10;;;1.47;;
2031;SDS011;27625;50.422;7.944;2024-03-02T13:47:10;3.00;;;1.60;;
2031;SDS011;27625;50.422;7.944;2024-03-02T13:49:37;2.97;;;1.60;;
2031;SDS011;27625;50.422;7.944;2024-03-02T13:52:10;2.40;;;1.50;;
2031;SDS011;27625;50.422;7.944;2024-03-02T13:54:38;3.03;;;1.40;;
2031;SDS011;27625;50.422;7.944;2024-03-02T13:57:05;3.20;;;1.93;;
2031;SDS011;27625;50.422;7.944;2024-03-02T13:59:32;4.50;;;1.97;;
2031;SDS011;27625;50.422;7.944;2024-03-02T14:01:59;2.50;;;1.47;;
2031;SDS011;27625;50.422;7.944;2024-03-02T14:04:26;3.53;;;1.30;;
2031;SDS011;27625;50.422;7.944;2024-03-02T14:06:52;4.63;;;1.30;;
2031;SDS011;27625;50.422;7.944;2024-03-02T14:09:20;2.50;;;1.50;;
2031;SDS011;27625;50.422;7.944;2024-03-02T14:11:49;2.70;;;1.40;;
2031;SDS011;27625;50.422;7.944;2024-03-02T14:14:16;2.43;;;1.30;;
2031;SDS011;27625;50.422;7.944;2024-03-02T14:16:43;2.50;;;1.37;;
2031;SDS011;27625;50.422;7.944;2024-03-02T14:19:10;2.27;;;1.40;;
2031;SDS011;27625;50.422;7.944;2024-03-02T14:21:37;2.00;;;1.00;;
2031;SDS011;27625;50.422;7.944;2024-03-02T14:24:04;2.40;;;1.30;;
2031;SDS011;27625;50.422;7.944;2024-03-02T14:26:33;2.70;;;1.30;;
2031;SDS011;27625;50.422;7.944;2024-03-02T14:29:04;2.20;;;1.10;;
2031;SDS011;27625;50.422;7.944;2024-03-02T14:31:32;5.17;;;1.50;;
2031;SDS011;27625;50.422;7.944;2024-03-02T14:34:00;2.47;;;1.50;;
2031;SDS011;27625;50.422;7.944;2024-03-02T14:39:01;4.10;;;1.30;;
2031;SDS011;27625;50.422;7.944;2024-03-02T14:41:39;2.50;;;1.40;;
2031;SDS011;27625;50.422;7.944;2024-03-02T14:44:06;25.47;;;11.50;;
2031;SDS011;27625;50.422;7.944;2024-03-02T14:46:34;4.60;;;2.70;;
2031;SDS011;27625;50.422;7.944;2024-03-02T14:49:00;13.20;;;10.50;;
2031;SDS011;27625;50.422;7.944;2024-03-02T14:51:31;2.93;;;1.90;;
2031;SDS011;27625;50.422;7.944;2024-03-02T14:53:59;2.50;;;1.50;;
2031;SDS011;27625;50.422;7.944;2024-03-02T14:56:26;2.40;;;1.40;;
2031;SDS011;27625;50.422;7.944;2024-03-02T14:58:55;2.60;;;1.50;;
2031;SDS011;27625;50.422;7.944;2024-03-02T15:01:27;24.30;;;15.40;;
2031;SDS011;27625;50.422;7.944;2024-03-02T15:03:54;2.83;;;1.60;;
2031;SDS011;27625;50.422;7.944;2024-03-02T15:06:31;4.13;;;2.70;;
2031;SDS011;27625;50.422;7.944;2024-03-02T15:08:58;2.73;;;1.70;;
2031;SDS011;27625;50.422;7.944;2024-03-02T15:11:26;4.40;;;2.50;;
2031;SDS011;27625;50.422;7.944;2024-03-02T15:16:24;2.43;;;1.40;;
2031;SDS011;27625;50.422;7.944;2024-03-02T15:18:51;2.80;;;1.67;;
2031;SDS011;27625;50.422;7.944;2024-03-02T15:21:24;3.20;;;1.77;;
2031;SDS011;27625;50.422;7.944;2024-03-02T15:23:53;2.80;;;1.40;;
2031;SDS011;27625;50.422;7.944;2024-03-02T15:26:25;2.60;;;1.90;;
2031;SDS011;27625;50.422;7.944;2024-03-02T15:28:53;5.07;;;2.23;;
2031;SDS011;27625;50.422;7.944;2024-03-02T15:31:22;3.50;;;1.80;;
2031;SDS011;27625;50.422;7.944;2024-03-02T15:33:49;2.90;;;1.80;;
2031;SDS011;27625;50.422;7.944;2024-03-02T15:36:17;3.40;;;1.90;;
2031;SDS011;27625;50.422;7.944;2024-03-02T15:38:43;3.20;;;1.50;;
2031;SDS011;27625;50.422;7.944;2024-03-02T15:41:10;2.30;;;1.30;;
2031;SDS011;27625;50.422;7.944;2024-03-02T15:43:46;2.40;;;1.37;;
2031;SDS011;27625;50.422;7.944;2024-03-02T15:46:15;2.80;;;1.80;;